Time;durP1;ratioP1;P1;durP2;ratioP2;P2;SDS_P1;SDS_P2;PMS_P1;PMS_P2;Temp;Humidity;BMP_temperature;BMP_pressure;BME280_temperature;BME280_humidity;BME280_pressure;Samples;Min_cycle;Max_cycle;Signal;HPM_P1;HPM_P2
2022/12/21 00:00:56;;;;;;;74.15;25.55;;;8.20;99.90;;;;;;5997614;23;20043;-87
2022/12/21 00:03:21;;;;;;;74.28;26.27;;;8.10;99.90;;;;;;5975609;23;20740;-87
2022/12/21 00:05:47;;;;;;;76.95;26.58;;;8.00;99.90;;;;;;6000095;23;20023;-86
2022/12/21 00:08:12;;;;;;;79.82;26.48;;;8.00;99.90;;;;;;5976593;23;20211;-86
2022/12/21 00:10:38;;;;;;;74.78;26.70;;;8.00;99.90;;;;;;5976051;23;20445;-86
2022/12/21 00:13:04;;;;;;;77.18;26.67;;;8.00;99.90;;;;;;5975122;23;20011;-87
2022/12/21 00:15:30;;;;;;;91.38;27.27;;;8.00;99.90;;;;;;5997171;23;20015;-87
2022/12/21 00:17:55;;;;;;;98.45;28.50;;;8.00;99.90;;;;;;5974396;23;20019;-86
2022/12/21 00:20:24;;;;;;;91.90;28.38;;;8.00;99.90;;;;;;6000328;23;20024;-87
2022/12/21 00:22:49;;;;;;;89.03;28.42;;;8.10;99.90;;;;;;5976793;23;20407;-86
2022/12/21 00:25:15;;;;;;;121.03;32.15;;;8.10;99.90;;;;;;5999794;23;20023;-87
2022/12/21 00:27:40;;;;;;;100.47;28.83;;;8.00;99.90;;;;;;6000462;23;20019;-87
2022/12/21 00:30:07;;;;;;;108.85;29.38;;;8.10;99.90;;;;;;5975885;23;20015;-87
2022/12/21 00:32:32;;;;;;;129.40;29.75;;;8.00;99.90;;;;;;5976240;23;20438;-88
2022/12/21 00:34:58;;;;;;;128.95;32.10;;;8.10;99.90;;;;;;5976233;23;20161;-87
2022/12/21 00:37:24;;;;;;;184.40;34.63;;;8.10;99.90;;;;;;6000154;23;20063;-86
2022/12/21 00:39:50;;;;;;;189.80;33.63;;;8.10;99.90;;;;;;5999329;23;20106;-86
2022/12/21 00:42:15;;;;;;;260.38;37.17;;;8.10;99.90;;;;;;5976721;23;20027;-87
2022/12/21 00:44:41;;;;;;;273.02;36.28;;;8.10;99.90;;;;;;5975463;23;20469;-88
2022/12/21 00:47:09;;;;;;;213.38;33.13;;;8.10;99.90;;;;;;6000058;23;20019;-87
2022/12/21 00:49:34;;;;;;;244.02;36.53;;;8.00;99.90;;;;;;5975981;23;20018;-86
2022/12/21 00:52:00;;;;;;;266.20;36.15;;;8.00;99.90;;;;;;5976440;23;20198;-86
2022/12/21 00:54:25;;;;;;;263.27;35.78;;;8.00;99.90;;;;;;5976238;23;20066;-87
2022/12/21 00:56:52;;;;;;;276.20;38.42;;;8.00;99.90;;;;;;5975589;23;20027;-87
2022/12/21 00:59:18;;;;;;;325.92;43.47;;;8.10;99.90;;;;;;5974934;23;20043;-87
2022/12/21 01:01:43;;;;;;;336.88;43.40;;;8.10;99.90;;;;;;5985661;23;20015;-87
2022/12/21 01:04:09;;;;;;;251.38;33.50;;;8.00;99.90;;;;;;6000261;23;20198;-86
2022/12/21 01:06:35;;;;;;;271.13;37.47;;;8.00;99.90;;;;;;6024419;23;20098;-86
2022/12/21 01:09:00;;;;;;;310.60;39.13;;;8.00;99.90;;;;;;6023938;23;20323;-87
2022/12/21 01:11:28;;;;;;;268.27;33.38;;;8.00;99.90;;;;;;5999327;23;20019;-87
2022/12/21 01:13:54;;;;;;;286.85;37.72;;;8.00;99.90;;;;;;5998994;23;20098;-86
2022/12/21 01:16:24;;;;;;;230.02;34.45;;;8.00;99.90;;;;;;5999262;23;20022;-87
2022/12/21 01:18:50;;;;;;;219.98;29.80;;;7.90;99.90;;;;;;6023288;23;20030;-87
2022/12/21 01:21:21;;;;;;;252.63;34.53;;;7.90;99.90;;;;;;6024396;23;20465;-88
2022/12/21 01:23:48;;;;;;;145.07;27.45;;;7.90;99.90;;;;;;6000481;23;20283;-86
2022/12/21 01:26:14;;;;;;;136.10;25.25;;;7.80;99.90;;;;;;6000288;23;20015;-86
2022/12/21 01:28:40;;;;;;;168.35;28.52;;;7.80;99.90;;;;;;6021694;23;20338;-87
2022/12/21 01:31:06;;;;;;;148.23;27.95;;;7.80;99.90;;;;;;6022176;23;20441;-87
2022/12/21 01:33:32;;;;;;;257.65;35.50;;;7.80;99.90;;;;;;5999109;23;20027;-87
2022/12/21 01:36:06;;;;;;;190.57;27.77;;;7.80;99.90;;;;;;5999086;23;20094;-87
2022/12/21 01:38:32;;;;;;;172.90;28.42;;;7.80;99.90;;;;;;6000739;23;20027;-87
2022/12/21 01:40:57;;;;;;;173.52;29.27;;;7.70;99.90;;;;;;5998802;23;20023;-87
2022/12/21 01:43:43;;;;;;;178.30;28.30;;;7.70;99.90;;;;;;5999563;23;20655;-86
2022/12/21 01:46:28;;;;;;;194.63;29.67;;;7.70;99.90;;;;;;6021761;23;20401;-86
2022/12/21 01:49:00;;;;;;;205.93;29.10;;;7.70;99.90;;;;;;6022465;23;20066;-86
2022/12/21 01:51:25;;;;;;;189.77;30.08;;;7.80;99.90;;;;;;6023055;23;20020;-86
2022/12/21 01:53:59;;;;;;;208.73;28.58;;;7.70;99.90;;;;;;5998583;23;20642;-86
2022/12/21 01:56:29;;;;;;;237.90;30.63;;;7.70;99.90;;;;;;5999388;23;20101;-86
2022/12/21 01:58:58;;;;;;;224.93;30.63;;;7.70;99.90;;;;;;5997959;23;20054;-87
2022/12/21 02:01:24;;;;;;;239.15;31.80;;;7.60;99.90;;;;;;5997525;23;20058;-87
2022/12/21 02:03:52;;;;;;;235.85;32.33;;;7.60;99.90;;;;;;5999400;23;20171;-87
2022/12/21 02:06:34;;;;;;;286.20;31.60;;;7.60;99.90;;;;;;6022284;23;20667;-87
2022/12/21 02:09:01;;;;;;;227.00;27.95;;;7.60;99.90;;;;;;5997233;23;20469;-87
2022/12/21 02:11:27;;;;;;;228.95;29.20;;;7.50;99.90;;;;;;5997818;23;20035;-87
2022/12/21 02:13:52;;;;;;;206.65;26.60;;;7.50;99.90;;;;;;5998597;23;20434;-86
2022/12/21 02:16:26;;;;;;;198.77;24.85;;;7.50;99.90;;;;;;5997899;23;20099;-87
2022/12/21 02:18:52;;;;;;;217.65;24.67;;;7.40;99.90;;;;;;5999601;23;20306;-86
2022/12/21 02:21:44;;;;;;;191.75;24.85;;;7.40;99.90;;;;;;6023135;23;20321;-87
2022/12/21 02:24:42;;;;;;;192.90;26.35;;;7.40;99.90;;;;;;6023325;23;20059;-87
2022/12/21 02:27:50;;;;;;;206.63;27.65;;;7.40;99.90;;;;;;6023691;23;20019;-86
2022/12/21 02:30:18;;;;;;;177.75;24.48;;;7.40;99.90;;;;;;5997837;23;20282;-87
2022/12/21 02:33:08;;;;;;;191.88;24.40;;;7.40;99.90;;;;;;5997974;23;20061;-85
2022/12/21 02:35:49;;;;;;;261.63;29.83;;;7.30;99.90;;;;;;6023460;23;20045;-87
2022/12/21 02:38:42;;;;;;;174.60;23.73;;;7.30;99.90;;;;;;6022829;23;20015;-87
2022/12/21 02:41:46;;;;;;;200.10;25.42;;;7.20;99.90;;;;;;5999061;23;20424;-87
2022/12/21 02:44:27;;;;;;;155.00;24.02;;;7.20;99.90;;;;;;5981958;23;20031;-87
2022/12/21 02:47:11;;;;;;;164.52;21.08;;;7.30;99.90;;;;;;6020583;23;20086;-87
2022/12/21 02:49:54;;;;;;;222.07;25.95;;;7.20;99.90;;;;;;5998817;23;20023;-87
2022/12/21 02:53:06;;;;;;;189.70;22.80;;;7.10;99.90;;;;;;5999857;23;20231;-87
2022/12/21 02:55:31;;;;;;;292.92;28.48;;;7.20;99.90;;;;;;5912800;24;20072;-86
2022/12/21 02:58:11;;;;;;;318.17;30.05;;;7.20;99.90;;;;;;6004034;23;20085;-86
2022/12/21 03:00:46;;;;;;;310.25;25.50;;;7.20;99.90;;;;;;6021756;23;20023;-86
2022/12/21 03:03:47;;;;;;;224.65;24.60;;;7.20;99.90;;;;;;5997499;23;20027;-86
2022/12/21 03:06:13;;;;;;;260.27;25.27;;;7.20;99.90;;;;;;5999032;23;20479;-86
2022/12/21 03:08:52;;;;;;;199.70;23.95;;;7.20;99.90;;;;;;5999723;23;20024;-87
2022/12/21 03:11:59;;;;;;;205.77;24.48;;;7.20;99.90;;;;;;5974144;23;20054;-87
2022/12/21 03:14:49;;;;;;;241.68;25.75;;;7.20;99.90;;;;;;5935622;23;20453;-87
2022/12/21 03:17:24;;;;;;;184.52;22.10;;;7.20;99.90;;;;;;5998792;23;20031;-85
2022/12/21 03:20:06;;;;;;;123.85;18.40;;;7.30;99.90;;;;;;5977716;23;20247;-86
2022/12/21 03:22:44;;;;;;;171.82;20.95;;;7.20;99.90;;;;;;6000533;23;20035;-87
2022/12/21 03:25:17;;;;;;;252.10;25.98;;;7.20;99.90;;;;;;5976937;23;20023;-87
2022/12/21 03:27:48;;;;;;;199.18;23.73;;;7.30;99.90;;;;;;5999716;23;20313;-86
2022/12/21 03:30:19;;;;;;;134.10;21.95;;;7.30;99.90;;;;;;5975775;23;20094;-87
2022/12/21 03:32:50;;;;;;;259.98;23.73;;;7.30;99.90;;;;;;5976254;23;20079;-86
2022/12/21 03:35:44;;;;;;;148.25;20.08;;;7.30;99.90;;;;;;5977992;23;20055;-87
2022/12/21 03:38:26;;;;;;;223.05;20.27;;;7.30;99.90;;;;;;6001024;23;20019;-86
2022/12/21 03:40:55;;;;;;;134.82;17.50;;;7.40;99.90;;;;;;5976320;23;20381;-86
2022/12/21 03:43:30;;;;;;;187.48;20.38;;;7.40;99.90;;;;;;6000287;23;20027;-87
2022/12/21 03:46:00;;;;;;;227.20;22.90;;;7.40;99.90;;;;;;5974947;23;20160;-86
2022/12/21 03:48:40;;;;;;;189.95;21.95;;;7.40;99.90;;;;;;6000151;23;20472;-86
2022/12/21 03:51:40;;;;;;;186.77;19.98;;;7.30;99.90;;;;;;5976449;23;20278;-86
2022/12/21 03:54:12;;;;;;;86.63;15.98;;;7.30;99.90;;;;;;5985082;23;20259;-86
2022/12/21 03:56:39;;;;;;;234.82;20.63;;;7.30;99.90;;;;;;6000935;23;20075;-87
2022/12/21 03:59:07;;;;;;;214.13;18.55;;;7.30;99.90;;;;;;5974144;23;20094;-86
2022/12/21 04:01:54;;;;;;;139.65;15.43;;;7.30;99.90;;;;;;5981335;23;20413;-86
2022/12/21 04:04:33;;;;;;;171.43;23.35;;;7.30;99.90;;;;;;5999938;23;20019;-87
2022/12/21 04:07:04;;;;;;;168.98;19.55;;;7.20;99.90;;;;;;6000394;23;20047;-87
2022/12/21 04:09:30;;;;;;;196.13;19.65;;;7.30;99.90;;;;;;6000452;23;20015;-88
2022/12/21 04:14:40;;;;;;;152.85;17.42;;;7.30;99.90;;;;;;6021288;23;20496;-86
2022/12/21 04:17:06;;;;;;;219.43;20.77;;;7.30;99.90;;;;;;5999892;23;20632;-86
2022/12/21 04:28:07;;;;;;;136.05;16.27;;;7.30;99.90;;;;;;6022788;23;20019;-88
2022/12/21 04:30:30;;;;;;;151.07;18.90;;;7.20;99.90;;;;;;6021743;23;20023;-86
2022/12/21 04:32:56;;;;;;;209.15;20.40;;;7.20;99.90;;;;;;5997917;23;20362;-88
2022/12/21 04:35:22;;;;;;;197.40;21.95;;;7.10;99.90;;;;;;6023485;23;20265;-87
2022/12/21 04:37:47;;;;;;;158.45;18.88;;;7.10;99.90;;;;;;6022767;23;20554;-87
2022/12/21 04:40:13;;;;;;;161.73;18.75;;;7.10;99.90;;;;;;5999664;23;20067;-87
2022/12/21 04:42:42;;;;;;;152.90;17.30;;;7.00;99.90;;;;;;6022578;23;20023;-88
2022/12/21 04:45:08;;;;;;;134.88;15.82;;;7.00;99.90;;;;;;5997992;23;20403;-87
2022/12/21 04:47:36;;;;;;;143.30;17.08;;;7.00;99.90;;;;;;6022312;23;20133;-86
2022/12/21 04:50:02;;;;;;;155.45;18.33;;;7.00;99.90;;;;;;5999347;23;20023;-86
2022/12/21 04:52:29;;;;;;;168.93;19.80;;;6.90;99.90;;;;;;5999900;23;20111;-86
2022/12/21 04:54:55;;;;;;;143.45;18.42;;;6.90;99.90;;;;;;5998924;23;20026;-87
2022/12/21 04:57:20;;;;;;;98.45;15.50;;;6.80;99.90;;;;;;5998986;23;20019;-87
2022/12/21 04:59:46;;;;;;;155.27;17.85;;;6.80;99.90;;;;;;5997324;23;20015;-87
2022/12/21 05:02:12;;;;;;;212.73;22.45;;;6.80;99.90;;;;;;5983653;23;20027;-87
2022/12/21 05:04:40;;;;;;;202.80;19.85;;;6.80;99.90;;;;;;5975665;23;20433;-86
2022/12/21 05:07:06;;;;;;;136.50;17.17;;;6.80;99.90;;;;;;5998175;23;20371;-86
2022/12/21 05:09:32;;;;;;;186.85;19.98;;;6.80;99.90;;;;;;5999790;23;20424;-86
2022/12/21 05:11:58;;;;;;;151.75;17.70;;;6.80;99.90;;;;;;5975279;23;20056;-86
2022/12/21 05:14:23;;;;;;;170.20;19.17;;;6.80;99.90;;;;;;5974070;23;20027;-86
2022/12/21 05:16:50;;;;;;;134.00;17.58;;;6.90;99.90;;;;;;5999115;23;20074;-86
2022/12/21 05:19:15;;;;;;;206.07;20.23;;;6.80;99.90;;;;;;5975556;23;20071;-86
2022/12/21 05:21:41;;;;;;;118.15;17.08;;;6.80;99.90;;;;;;5976050;23;20027;-86
2022/12/21 05:24:07;;;;;;;123.75;19.40;;;6.80;99.90;;;;;;5998945;23;20015;-86
2022/12/21 05:26:33;;;;;;;116.60;18.27;;;6.80;99.90;;;;;;5975051;23;20054;-86
2022/12/21 05:28:59;;;;;;;113.32;18.33;;;6.80;99.90;;;;;;5999039;23;20340;-87
2022/12/21 05:31:25;;;;;;;142.65;16.67;;;6.80;99.90;;;;;;5998225;23;20015;-88
2022/12/21 05:33:52;;;;;;;120.15;16.48;;;6.70;99.90;;;;;;5975421;23;20074;-86
2022/12/21 05:36:18;;;;;;;214.30;25.15;;;6.80;99.90;;;;;;5999169;23;20019;-87
2022/12/21 05:38:44;;;;;;;158.45;21.38;;;6.80;99.90;;;;;;5974319;23;20026;-86
2022/12/21 05:41:14;;;;;;;123.95;18.60;;;6.80;99.90;;;;;;5975321;23;20094;-87
2022/12/21 05:43:41;;;;;;;131.98;18.73;;;6.80;99.90;;;;;;5974115;23;20130;-85
2022/12/21 05:46:09;;;;;;;199.55;23.23;;;6.80;99.90;;;;;;5973964;23;20023;-87
2022/12/21 05:48:37;;;;;;;255.60;23.98;;;6.80;99.90;;;;;;5975593;23;20846;-87
2022/12/21 05:51:11;;;;;;;268.42;27.80;;;6.80;99.90;;;;;;5998778;23;20357;-86
2022/12/21 05:53:40;;;;;;;222.25;22.85;;;6.80;99.90;;;;;;5998764;23;20019;-86
2022/12/21 05:56:06;;;;;;;158.35;19.60;;;6.90;99.90;;;;;;5998615;23;20015;-86
2022/12/21 05:58:32;;;;;;;168.32;21.80;;;6.80;99.90;;;;;;5998755;23;20355;-86
2022/12/21 06:01:06;;;;;;;136.25;20.10;;;6.90;99.90;;;;;;5973931;23;20315;-87
2022/12/21 06:03:32;;;;;;;204.70;22.17;;;6.80;99.90;;;;;;5974917;23;20061;-87
2022/12/21 06:06:03;;;;;;;131.18;19.17;;;6.90;99.90;;;;;;5975124;23;20023;-87
2022/12/21 06:08:30;;;;;;;131.70;19.50;;;6.90;99.90;;;;;;5975740;23;20027;-86
2022/12/21 06:10:56;;;;;;;181.32;24.83;;;6.90;99.90;;;;;;5975301;23;20091;-87
2022/12/21 06:13:22;;;;;;;169.82;21.15;;;7.00;99.90;;;;;;5975235;23;20046;-88
2022/12/21 06:15:47;;;;;;;120.03;19.90;;;6.90;99.90;;;;;;5974142;23;20476;-87
2022/12/21 06:18:13;;;;;;;175.98;25.38;;;7.00;99.90;;;;;;5975292;23;20023;-86
2022/12/21 06:20:38;;;;;;;168.50;23.15;;;7.00;99.90;;;;;;5997628;23;20396;-86
2022/12/21 06:23:04;;;;;;;144.98;21.67;;;7.00;99.90;;;;;;5997837;23;20030;-86
2022/12/21 06:25:30;;;;;;;132.68;23.02;;;7.00;99.90;;;;;;5975141;23;20300;-85
2022/12/21 06:27:56;;;;;;;115.88;20.25;;;7.00;99.90;;;;;;5975226;23;20031;-87
2022/12/21 06:30:21;;;;;;;147.25;21.60;;;7.00;99.90;;;;;;5974069;23;20024;-86
2022/12/21 06:32:47;;;;;;;183.15;22.45;;;7.00;99.90;;;;;;5997745;23;20019;-85
2022/12/21 06:35:13;;;;;;;311.70;29.85;;;7.00;99.90;;;;;;5975256;23;20046;-87
2022/12/21 06:37:38;;;;;;;149.55;24.63;;;7.00;99.90;;;;;;5975608;23;20058;-87
2022/12/21 06:40:05;;;;;;;246.43;28.10;;;7.00;99.90;;;;;;5974725;23;20023;-86
2022/12/21 06:42:30;;;;;;;197.10;24.35;;;7.00;99.90;;;;;;5974457;23;20480;-88
2022/12/21 06:44:56;;;;;;;175.10;25.20;;;7.00;99.90;;;;;;5996951;23;20020;-86
2022/12/21 06:47:22;;;;;;;153.60;24.50;;;7.00;99.90;;;;;;5997205;23;20666;-86
2022/12/21 06:49:50;;;;;;;153.77;27.25;;;7.00;99.90;;;;;;5975419;23;20043;-88
2022/12/21 06:52:16;;;;;;;159.32;25.00;;;7.00;99.90;;;;;;5975846;23;20365;-88
2022/12/21 06:54:41;;;;;;;201.18;28.05;;;7.00;99.90;;;;;;6001519;23;20034;-86
2022/12/21 06:57:07;;;;;;;118.90;22.25;;;7.00;99.90;;;;;;5977168;23;20019;-86
2022/12/21 06:59:36;;;;;;;155.90;26.08;;;6.90;99.90;;;;;;5976896;23;20320;-87
2022/12/21 07:02:02;;;;;;;170.23;26.33;;;7.00;99.90;;;;;;5988685;23;20141;-86
2022/12/21 07:04:28;;;;;;;119.13;25.15;;;7.00;99.90;;;;;;6000476;23;20026;-86
2022/12/21 07:06:53;;;;;;;202.15;32.33;;;7.00;99.90;;;;;;6000080;23;20707;-87
2022/12/21 07:09:19;;;;;;;187.90;28.23;;;7.00;99.90;;;;;;6000391;23;20019;-86
2022/12/21 07:11:46;;;;;;;118.35;23.70;;;7.00;99.90;;;;;;6000567;23;20166;-87
2022/12/21 07:14:12;;;;;;;111.63;25.85;;;7.00;99.90;;;;;;6000022;23;20149;-86
2022/12/21 07:16:40;;;;;;;182.23;32.75;;;6.90;99.90;;;;;;6000209;23;20098;-87
2022/12/21 07:19:06;;;;;;;115.57;26.08;;;7.00;99.90;;;;;;6024044;23;20862;-87
2022/12/21 07:21:31;;;;;;;133.02;27.17;;;7.00;99.90;;;;;;6000986;23;20027;-87
2022/12/21 07:23:57;;;;;;;132.80;27.70;;;7.00;99.90;;;;;;6000571;23;20075;-87
2022/12/21 07:26:23;;;;;;;156.57;28.38;;;6.90;99.90;;;;;;6000376;23;20475;-87
2022/12/21 07:28:50;;;;;;;209.02;33.05;;;7.00;99.90;;;;;;6023208;23;20051;-86
2022/12/21 07:31:26;;;;;;;206.85;33.17;;;7.00;99.90;;;;;;5999337;23;20019;-86
2022/12/21 07:33:52;;;;;;;219.40;30.98;;;7.00;99.90;;;;;;6000089;23;20473;-87
2022/12/21 07:36:18;;;;;;;183.52;32.47;;;7.00;99.90;;;;;;5999857;23;20062;-86
2022/12/21 07:38:44;;;;;;;361.02;43.38;;;7.00;99.90;;;;;;6000477;23;20023;-88
2022/12/21 07:41:13;;;;;;;175.57;35.63;;;7.10;99.90;;;;;;5999580;23;20022;-86
2022/12/21 07:43:39;;;;;;;199.85;34.53;;;7.00;99.90;;;;;;6023598;23;20174;-86
2022/12/21 07:46:06;;;;;;;238.85;35.17;;;7.10;99.90;;;;;;5998744;23;20055;-86
2022/12/21 07:48:32;;;;;;;265.15;37.95;;;7.20;99.90;;;;;;6000295;23;20015;-86
2022/12/21 07:50:58;;;;;;;164.18;34.95;;;7.10;99.90;;;;;;6001239;23;20011;-85
2022/12/21 07:53:27;;;;;;;229.90;36.88;;;7.10;99.90;;;;;;6023608;23;20018;-86
2022/12/21 07:55:57;;;;;;;183.43;33.63;;;7.20;99.90;;;;;;6001674;23;20106;-85
2022/12/21 07:58:22;;;;;;;186.50;37.42;;;7.20;99.90;;;;;;5998822;23;20030;-87
2022/12/21 08:00:49;;;;;;;396.55;46.70;;;7.20;99.90;;;;;;6000174;23;20027;-86
2022/12/21 08:03:14;;;;;;;228.48;39.03;;;7.20;99.90;;;;;;5976202;23;20345;-86
2022/12/21 08:05:40;;;;;;;253.98;40.28;;;7.30;99.90;;;;;;5977030;23;20327;-87
2022/12/21 08:08:06;;;;;;;256.05;42.53;;;7.30;99.90;;;;;;5976303;23;20075;-86
2022/12/21 08:10:32;;;;;;;152.45;36.40;;;7.40;99.90;;;;;;5976384;23;20019;-85
2022/12/21 08:12:57;;;;;;;370.95;50.65;;;7.40;99.90;;;;;;5976836;23;20030;-86
2022/12/21 08:15:23;;;;;;;246.50;41.47;;;7.40;99.90;;;;;;5975452;23;20093;-86
2022/12/21 08:17:51;;;;;;;181.13;37.00;;;7.30;99.90;;;;;;5998374;23;20023;-86
2022/12/21 08:20:17;;;;;;;267.17;42.70;;;7.40;99.90;;;;;;5977484;23;20146;-86
2022/12/21 08:22:43;;;;;;;250.88;42.72;;;7.40;99.90;;;;;;5976684;23;20475;-86
2022/12/21 08:25:09;;;;;;;158.85;35.25;;;7.40;99.90;;;;;;5998192;23;20078;-87
2022/12/21 08:27:36;;;;;;;192.15;40.40;;;7.40;99.90;;;;;;5975493;23;20456;-86
2022/12/21 08:30:01;;;;;;;292.90;46.22;;;7.40;99.90;;;;;;5974588;23;20067;-87
2022/12/21 08:32:28;;;;;;;213.70;39.22;;;7.40;99.90;;;;;;5997811;23;20015;-86
2022/12/21 08:34:54;;;;;;;183.48;38.30;;;7.40;99.90;;;;;;6000422;23;20015;-86
2022/12/21 08:37:20;;;;;;;273.60;41.67;;;7.40;99.90;;;;;;5975503;23;20087;-87
2022/12/21 08:39:46;;;;;;;201.90;38.25;;;7.40;99.90;;;;;;6000283;23;20501;-88
2022/12/21 08:42:13;;;;;;;184.68;37.70;;;7.40;99.90;;;;;;5974907;23;20054;-85
2022/12/21 08:44:39;;;;;;;202.45;40.22;;;7.50;99.90;;;;;;5997821;23;20076;-86
2022/12/21 08:47:06;;;;;;;163.95;37.45;;;7.50;99.90;;;;;;5975216;23;20025;-87
2022/12/21 08:49:32;;;;;;;159.60;36.75;;;7.50;99.90;;;;;;5998647;23;20345;-86
2022/12/21 08:51:57;;;;;;;212.50;38.88;;;7.50;99.90;;;;;;5976223;23;20019;-87
2022/12/21 08:54:24;;;;;;;176.23;39.13;;;7.60;99.90;;;;;;5975211;23;20106;-86
2022/12/21 08:56:50;;;;;;;176.15;38.00;;;7.60;99.90;;;;;;5975372;23;20477;-86
2022/12/21 08:59:15;;;;;;;152.38;36.88;;;7.80;99.90;;;;;;5998503;23;20196;-86
2022/12/21 09:01:41;;;;;;;135.38;34.50;;;7.80;99.90;;;;;;5983054;23;20030;-87
2022/12/21 09:04:06;;;;;;;131.30;33.72;;;7.90;99.90;;;;;;6024135;23;20050;-87
2022/12/21 09:06:32;;;;;;;132.82;34.03;;;7.90;99.90;;;;;;6024234;23;20034;-85
2022/12/21 09:08:58;;;;;;;133.38;35.80;;;7.90;99.90;;;;;;6021992;23;20026;-87
2022/12/21 09:11:24;;;;;;;157.02;36.78;;;7.90;99.90;;;;;;6022074;23;20400;-86
2022/12/21 09:13:49;;;;;;;130.20;34.53;;;8.00;99.90;;;;;;5997933;23;20015;-86
2022/12/21 09:16:21;;;;;;;130.20;33.25;;;8.00;99.90;;;;;;6022114;23;20114;-86
2022/12/21 09:18:48;;;;;;;113.25;34.03;;;8.10;99.90;;;;;;5998017;23;20019;-86
2022/12/21 09:21:15;;;;;;;117.88;33.15;;;8.20;99.90;;;;;;5999470;23;20461;-86
2022/12/21 09:23:41;;;;;;;132.20;34.03;;;8.20;99.90;;;;;;5998867;23;20251;-88
2022/12/21 09:26:07;;;;;;;111.97;34.67;;;8.30;99.90;;;;;;5997858;23;20510;-86
2022/12/21 09:28:34;;;;;;;112.50;33.40;;;8.30;99.90;;;;;;5998994;23;20019;-86
2022/12/21 09:31:11;;;;;;;109.60;32.83;;;8.20;99.90;;;;;;5997476;23;20011;-86
2022/12/21 09:33:39;;;;;;;117.32;33.13;;;8.20;99.90;;;;;;5999204;23;20051;-86
2022/12/21 09:36:05;;;;;;;106.90;33.55;;;8.30;99.90;;;;;;6046513;23;20019;-87
2022/12/21 09:38:31;;;;;;;94.68;30.83;;;8.30;99.90;;;;;;6021467;23;20104;-86
2022/12/21 09:41:21;;;;;;;102.82;32.33;;;8.30;99.90;;;;;;5998858;23;20139;-86
2022/12/21 09:44:05;;;;;;;98.18;30.63;;;8.20;99.90;;;;;;6002351;23;20533;-87
2022/12/21 09:46:36;;;;;;;90.65;29.83;;;8.20;99.90;;;;;;6022218;23;20015;-86
2022/12/21 09:49:10;;;;;;;97.35;31.17;;;8.20;99.90;;;;;;6021914;23;20049;-87
2022/12/21 09:51:36;;;;;;;102.55;31.17;;;8.10;99.90;;;;;;6023748;23;20071;-87
2022/12/21 09:54:28;;;;;;;113.72;33.60;;;8.20;99.90;;;;;;6021872;23;20122;-87
2022/12/21 09:56:56;;;;;;;83.00;28.35;;;8.10;99.90;;;;;;6016642;23;20038;-86
2022/12/21 09:59:21;;;;;;;86.20;28.13;;;8.10;99.90;;;;;;5997861;23;20022;-87
2022/12/21 10:02:00;;;;;;;84.97;27.50;;;8.10;99.90;;;;;;5998966;23;20294;-86
2022/12/21 10:04:40;;;;;;;82.97;28.58;;;8.10;99.90;;;;;;6022557;23;20441;-86
2022/12/21 10:07:26;;;;;;;87.57;29.35;;;8.20;99.90;;;;;;6024529;23;20325;-87
2022/12/21 10:10:22;;;;;;;89.57;29.55;;;8.10;99.90;;;;;;6003116;23;20091;-87
2022/12/21 10:13:04;;;;;;;85.95;26.73;;;8.20;99.90;;;;;;6022821;23;20015;-87
2022/12/21 10:16:02;;;;;;;76.40;24.75;;;8.10;99.90;;;;;;5998046;23;20011;-86
2022/12/21 10:19:06;;;;;;;70.32;26.55;;;8.10;99.90;;;;;;6021803;23;20094;-86
2022/12/21 10:22:05;;;;;;;82.78;27.05;;;8.10;99.90;;;;;;6021586;23;20060;-86
2022/12/21 10:24:43;;;;;;;75.85;26.00;;;8.20;99.90;;;;;;5998711;23;20438;-88
2022/12/21 10:27:19;;;;;;;64.50;26.83;;;8.30;99.90;;;;;;6023092;23;20357;-86
2022/12/21 10:29:51;;;;;;;65.68;26.92;;;8.20;99.90;;;;;;5996482;23;20035;-86
2022/12/21 10:32:17;;;;;;;66.93;26.08;;;8.20;99.90;;;;;;6021801;23;20007;-86
2022/12/21 10:34:47;;;;;;;71.80;27.58;;;8.20;99.90;;;;;;5998160;23;20011;-86
2022/12/21 10:37:18;;;;;;;69.10;27.90;;;8.20;99.90;;;;;;6021970;23;20421;-87
2022/12/21 10:39:46;;;;;;;77.82;27.50;;;8.30;99.90;;;;;;5998940;23;20011;-86
2022/12/21 10:42:32;;;;;;;69.22;26.35;;;8.30;99.90;;;;;;6021819;23;20069;-86
2022/12/21 10:44:58;;;;;;;71.38;27.45;;;8.30;99.90;;;;;;5997263;23;20403;-87
2022/12/21 10:47:24;;;;;;;68.50;26.90;;;8.40;99.90;;;;;;5997622;23;20024;-87
2022/12/21 10:49:59;;;;;;;52.95;24.20;;;8.40;99.90;;;;;;6022242;23;20326;-88
2022/12/21 10:52:48;;;;;;;49.83;22.15;;;8.30;99.90;;;;;;6021801;23;20492;-87
2022/12/21 10:55:17;;;;;;;52.08;21.70;;;8.30;99.90;;;;;;5998852;23;20458;-86
2022/12/21 10:57:47;;;;;;;53.60;22.33;;;8.30;99.90;;;;;;6021764;23;20110;-87
2022/12/21 11:00:25;;;;;;;52.60;23.40;;;8.20;99.90;;;;;;5998103;23;20031;-86
2022/12/21 11:02:52;;;;;;;52.60;22.85;;;8.30;99.90;;;;;;6022102;23;20809;-87
2022/12/21 11:05:35;;;;;;;50.58;21.58;;;8.20;99.90;;;;;;5999129;23;20575;-87
2022/12/21 11:08:12;;;;;;;51.38;21.77;;;8.00;99.90;;;;;;6022511;23;20124;-86
2022/12/21 11:10:44;;;;;;;50.42;21.48;;;8.00;99.90;;;;;;6022136;23;20420;-86
2022/12/21 11:13:13;;;;;;;50.30;21.90;;;8.00;99.90;;;;;;6022131;23;20117;-87
2022/12/21 11:15:50;;;;;;;58.35;23.02;;;8.10;99.90;;;;;;5999317;23;20353;-87
2022/12/21 11:18:45;;;;;;;51.67;22.17;;;8.10;99.90;;;;;;5998098;23;20020;-87
2022/12/21 11:21:43;;;;;;;58.13;22.48;;;8.10;99.90;;;;;;5998073;23;20082;-87
2022/12/21 11:24:19;;;;;;;50.72;21.55;;;8.10;99.90;;;;;;5998694;23;20091;-87
2022/12/21 11:26:55;;;;;;;52.08;21.13;;;8.20;99.90;;;;;;5998129;23;20019;-86
2022/12/21 11:29:24;;;;;;;52.85;21.52;;;8.10;99.90;;;;;;5997509;23;20012;-86
2022/12/21 11:31:53;;;;;;;57.47;23.00;;;8.10;99.90;;;;;;6021468;23;20015;-87
2022/12/21 11:34:28;;;;;;;55.55;20.45;;;8.20;99.90;;;;;;6021874;23;20915;-86
2022/12/21 11:36:56;;;;;;;55.05;21.83;;;8.20;99.90;;;;;;6022697;23;20102;-87
2022/12/21 11:39:23;;;;;;;50.17;20.83;;;8.20;99.90;;;;;;5999558;23;20027;-87
2022/12/21 11:41:53;;;;;;;49.10;21.60;;;8.20;99.90;;;;;;6025114;23;20018;-86
2022/12/21 11:44:24;;;;;;;52.20;20.45;;;8.20;99.90;;;;;;5998630;23;20046;-87
2022/12/21 11:47:23;;;;;;;50.83;20.48;;;8.30;99.90;;;;;;6000251;23;20022;-86
2022/12/21 11:50:03;;;;;;;50.35;19.63;;;8.30;99.90;;;;;;6024576;23;20022;-88
2022/12/21 11:52:35;;;;;;;43.22;18.30;;;8.30;99.90;;;;;;6000364;23;20011;-86
2022/12/21 11:55:10;;;;;;;43.35;19.63;;;8.30;99.90;;;;;;6023991;23;20154;-87
2022/12/21 11:57:51;;;;;;;47.13;18.83;;;8.30;99.90;;;;;;6000499;23;20027;-85
2022/12/21 12:00:23;;;;;;;41.33;18.65;;;8.30;99.90;;;;;;6023821;23;20016;-87
2022/12/21 12:03:20;;;;;;;47.53;18.63;;;8.40;99.90;;;;;;6022918;23;20020;-87
2022/12/21 12:06:17;;;;;;;42.80;18.15;;;8.50;99.90;;;;;;6001575;23;20778;-86
2022/12/21 12:09:11;;;;;;;43.50;17.42;;;8.40;99.90;;;;;;6023669;23;20398;-87
2022/12/21 12:12:05;;;;;;;44.15;17.30;;;8.40;99.90;;;;;;6001191;23;20023;-88
2022/12/21 12:14:49;;;;;;;48.28;17.85;;;8.50;99.90;;;;;;5998086;23;20015;-87
2022/12/21 12:17:25;;;;;;;42.33;18.05;;;8.50;99.90;;;;;;6000734;23;20092;-88
2022/12/21 12:20:06;;;;;;;39.22;16.40;;;8.50;99.90;;;;;;6024943;23;20019;-87
2022/12/21 12:22:44;;;;;;;41.85;17.65;;;8.60;99.90;;;;;;6024927;23;20023;-87
2022/12/21 12:25:56;;;;;;;44.38;16.83;;;8.60;99.90;;;;;;6024209;23;20090;-86
2022/12/21 12:28:42;;;;;;;51.08;18.13;;;8.60;99.90;;;;;;5999901;23;20023;-87
2022/12/21 12:31:23;;;;;;;41.35;16.67;;;8.70;99.90;;;;;;5999180;23;20015;-86
2022/12/21 12:34:07;;;;;;;43.78;15.88;;;8.60;99.90;;;;;;6000206;23;20015;-87
2022/12/21 12:37:09;;;;;;;37.83;16.08;;;8.60;99.90;;;;;;6024191;23;20237;-88
2022/12/21 12:40:06;;;;;;;34.70;16.00;;;8.70;99.90;;;;;;5999530;23;20390;-86
2022/12/21 12:42:51;;;;;;;45.58;16.10;;;8.70;99.90;;;;;;5999702;23;20018;-88
2022/12/21 12:45:44;;;;;;;36.67;15.40;;;8.80;99.90;;;;;;6022550;23;20050;-89
2022/12/21 12:48:40;;;;;;;34.58;16.40;;;8.70;99.90;;;;;;6023040;23;20016;-87
2022/12/21 12:51:35;;;;;;;40.65;16.67;;;8.80;99.90;;;;;;5999703;23;20311;-89
2022/12/21 12:54:34;;;;;;;39.15;16.23;;;8.80;99.90;;;;;;5999912;23;20026;-87
2022/12/21 12:57:11;;;;;;;39.33;16.90;;;8.90;99.90;;;;;;6024040;23;20022;-87
2022/12/21 12:59:46;;;;;;;44.80;18.25;;;8.90;99.90;;;;;;5999820;23;20019;-87
2022/12/21 13:02:30;;;;;;;39.17;16.83;;;8.90;99.90;;;;;;5999290;23;20053;-88
2022/12/21 13:05:16;;;;;;;37.38;17.92;;;8.90;99.90;;;;;;6024509;23;20023;-88
2022/12/21 13:07:47;;;;;;;;;;;8.90;99.90;;;;;;6023492;23;20130;-88